WetterOnline ( https://www.wetteronline.de )

Wetter aktuell Großpösna

Aktuelles Wetter: Leipzig-Holzhausen (138m)

6-stündlich | Neueste Meldungen
Ortszeit Temperatur Wetter
Mo, 22.07. 8:00 18.3° C wolkig
Mo, 22.07. 2:00 15.5° C leicht bewölkt
So, 21.07. 20:00 25.5° C leicht bewölkt
So, 21.07. 14:00 25.3° C leicht bewölkt
So, 21.07. 8:00 19.0° C wolkig
So, 21.07. 2:00 17.6° C bewölkt
Sa, 20.07. 20:00 29.0° C wolkig
Sa, 20.07. 14:00 28.1° C leicht bewölkt
Ortszeit Temperatur Wetter
Mo, 22.07. 10:00 22.6° C wolkig
Mo, 22.07. 9:50 22.6° C bedeckt
Mo, 22.07. 9:40 21.9° C bewölkt
Mo, 22.07. 9:30 21.7° C wolkig
Mo, 22.07. 9:20 21.7° C wolkig
Mo, 22.07. 9:10 21.6° C wolkig
Mo, 22.07. 9:00 20.7° C leicht bewölkt
Mo, 22.07. 8:30 20.0° C wolkig
Mo, 22.07. 8:00 18.3° C wolkig
Mo, 22.07. 7:30 17.3° C wolkig
Mo, 22.07. 7:00 15.9° C wolkig
Ortszeit Relative Feuchte Sichtweite
Mo, 22.07. 8:00 73% 28 km
Mo, 22.07. 2:00 85% 30 km
So, 21.07. 20:00 41% 60 km
So, 21.07. 14:00 50% 50 km
So, 21.07. 8:00 84% 28 km
So, 21.07. 2:00 93% 25 km
Sa, 20.07. 20:00 40% 40 km
Sa, 20.07. 14:00 38% 30 km
Ortszeit Relative Feuchte Sichtweite
Mo, 22.07. 10:00 57% 45 km
Mo, 22.07. 9:50 57% -
Mo, 22.07. 9:40 57% -
Mo, 22.07. 9:30 59% 40 km
Mo, 22.07. 9:20 59% -
Mo, 22.07. 9:10 60% -
Mo, 22.07. 9:00 62% 40 km
Mo, 22.07. 8:30 65% 26 km
Mo, 22.07. 8:00 73% 28 km
Mo, 22.07. 7:30 76% 27 km
Mo, 22.07. 7:00 84% 25 km
Ortszeit Niederschlagsmenge Niederschlagsart
Mo, 22.07. 8:00 0.0 l/m2 in 12 Std. -
Mo, 22.07. 2:00 0.0 l/m2 in 6 Std. -
So, 21.07. 20:00 0.0 l/m2 in 12 Std. -
So, 21.07. 14:00 0.1 l/m2 in 6 Std. -
So, 21.07. 8:00 8 l/m2 in 12 Std. Regen
So, 21.07. 2:00 8 l/m2 in 6 Std. Regenschauer
Sa, 20.07. 20:00 0.0 l/m2 in 12 Std. -
Sa, 20.07. 14:00 0.0 l/m2 in 6 Std. -
Ortszeit Niederschlagsmenge Niederschlagsart
Mo, 22.07. 10:00 0.0 l/m2 in 1 Std. -
Mo, 22.07. 9:50 keine Meldung -
Mo, 22.07. 9:40 keine Meldung -
Mo, 22.07. 9:30 0.0 l/m2 in 1 Std. -
Mo, 22.07. 9:20 keine Meldung -
Mo, 22.07. 9:10 keine Meldung -
Mo, 22.07. 9:00 0.0 l/m2 in 1 Std. -
Mo, 22.07. 8:30 0.0 l/m2 in 1 Std. -
Mo, 22.07. 8:00 0.0 l/m2 in 1 Std. -
Mo, 22.07. 7:30 0.0 l/m2 in 1 Std. -
Mo, 22.07. 7:00 0.0 l/m2 in 1 Std. -
Ortszeit Stärke Spitze Richtung
km/h Bft. km/h Grad Sektor
Mo, 22.07. 8:00 4 1 7 230° SW
Mo, 22.07. 2:00 0 0 14 - -
So, 21.07. 20:00 7 2 40 340° N
So, 21.07. 14:00 11 2 29 290° W
So, 21.07. 8:00 7 2 18 250° W
So, 21.07. 2:00 7 2 67 190° S
Sa, 20.07. 20:00 4 1 29 150° SO
Sa, 20.07. 14:00 11 2 25 160° S
Ortszeit Stärke Spitze Richtung
km/h Bft. km/h Grad Sektor
Mo, 22.07. 10:00 6 1 13 230° SW
Mo, 22.07. 9:50 6 1 - 230° SW
Mo, 22.07. 9:40 7 2 - 210° SW
Mo, 22.07. 9:30 6 1 11 220° SW
Mo, 22.07. 9:20 6 1 - 220° SW
Mo, 22.07. 9:10 6 1 - 220° SW
Mo, 22.07. 9:00 4 1 11 210° SW
Mo, 22.07. 8:30 4 1 7 240° SW
Mo, 22.07. 8:00 4 1 7 230° SW
Mo, 22.07. 7:30 6 1 7 220° SW
Mo, 22.07. 7:00 4 1 7 230° SW
Ortszeit Untergrenze Bedeckung Gattung
total tief tief mittel hoch
Mo, 22.07. 8:00 7800 m 8/8 0/8 - - -
Mo, 22.07. 2:00 8700 m 6/8 0/8 - - -
So, 21.07. 20:00 2100 m 5/8 1/8 - - -
So, 21.07. 14:00 1350 m 3/8 3/8 - - -
So, 21.07. 8:00 2700 m 7/8 5/8 - - -
So, 21.07. 2:00 3000 m 7/8 7/8 - - -
Sa, 20.07. 20:00 6000 m 8/8 1/8 - - -
Sa, 20.07. 14:00 10500 m 7/8 0/8 - - -
Ortszeit Bedeckungsgrad in Achtel und Wolkenuntergrenze
Mo, 22.07. 10:00 8(6600m) 8(10500m) 8(10500m)
Mo, 22.07. 9:50 8(6600m) 8(10500m) 8(10500m)
Mo, 22.07. 9:40 4(6600m) 8(7200m) 8(10500m)
Mo, 22.07. 9:30 5(7200m) 6(7800m) 8(9000m)
Mo, 22.07. 9:20 5(7200m) 6(7800m) 8(9000m)
Mo, 22.07. 9:10 4(7500m) 8(10500m) 8(10500m)
Mo, 22.07. 9:00 2(8700m) 7(10500m) 8(10500m)
Mo, 22.07. 8:30 7(7800m) 8(8400m) 8(10500m)
Mo, 22.07. 8:00 3(7800m) 6(9000m) 8(10500m)
Mo, 22.07. 7:30 7(10500m) 8(10500m) 8(10500m)
Mo, 22.07. 7:00 7(10500m) 8(10500m)
Ortszeit Luftdruck NN (hPa) Tendenz (hPa in 3 Std.)
Mo, 22.07. 8:00 1023 + 0,1
Mo, 22.07. 2:00 1023 + 0,5
So, 21.07. 20:00 1020 + 0,9
So, 21.07. 14:00 1019 + 0,3
So, 21.07. 8:00 1017 + 2,3
So, 21.07. 2:00 1015 + 0,3
Sa, 20.07. 20:00 1010 - 1,2
Sa, 20.07. 14:00 1013 - 1,2
Ortszeit Luftdruck NN (hPa) Tendenz (hPa in 3 Std.)
Mo, 22.07. 10:00 1023 + 0,2
Mo, 22.07. 9:50 1023 keine Meldung
Mo, 22.07. 9:40 1023 keine Meldung
Mo, 22.07. 9:30 1023 + 0,3
Mo, 22.07. 9:20 1023 keine Meldung
Mo, 22.07. 9:10 1023 keine Meldung
Mo, 22.07. 9:00 1023 + 0,2
Mo, 22.07. 8:30 1023 + 0,2
Mo, 22.07. 8:00 1023 + 0,1
Mo, 22.07. 7:30 1023 - 0,1
Mo, 22.07. 7:00 1023 + 0,1
Ortszeit Schneehöhe (cm)
Mo, 22.07. 8:00 -
Mo, 22.07. 2:00 -
So, 21.07. 20:00 -
So, 21.07. 14:00 -
So, 21.07. 8:00 -
So, 21.07. 2:00 -
Sa, 20.07. 20:00 -
Sa, 20.07. 14:00 -
Ortszeit Schneehöhe (cm)
Mo, 22.07. 10:00 -
Mo, 22.07. 9:50 -
Mo, 22.07. 9:40 -
Mo, 22.07. 9:30 -
Mo, 22.07. 9:20 -
Mo, 22.07. 9:10 -
Mo, 22.07. 9:00 -
Mo, 22.07. 8:30 -
Mo, 22.07. 8:00 -
Mo, 22.07. 7:30 -
Mo, 22.07. 7:00 -
Link zu dieser Seite / Seite empfehlen

Das Wetter in ...